Time;durP1;ratioP1;P1;durP2;ratioP2;P2;SDS_P1;SDS_P2;PMS_P1;PMS_P2;Temp;Humidity;BMP_temperature;BMP_pressure;BME280_temperature;BME280_humidity;BME280_pressure;Samples;Min_cycle;Max_cycle;Signal;HPM_P1;HPM_P2
2024/04/07 00:00:58;;;;;;;5.45;2.28;;;7.90;99.90;;;;;;21250394;27;20043;-39
2024/04/07 00:11:03;;;;;;;6.65;2.30;;;7.90;99.90;;;;;;21244539;27;20031;-39
2024/04/07 00:21:06;;;;;;;4.03;2.10;;;7.90;99.90;;;;;;21227203;27;20031;-39
2024/04/07 00:31:08;;;;;;;6.32;1.90;;;7.80;99.90;;;;;;21249184;27;20334;-39
2024/04/07 00:41:10;;;;;;;4.60;2.25;;;7.90;99.90;;;;;;21228447;27;20438;-39
2024/04/07 00:51:12;;;;;;;4.55;1.95;;;7.90;99.90;;;;;;21245870;27;20043;-38
2024/04/07 01:01:14;;;;;;;4.63;2.90;;;7.80;99.90;;;;;;21245706;27;20099;-38
2024/04/07 01:11:16;;;;;;;6.13;2.60;;;7.70;99.90;;;;;;21209349;27;20035;-36
2024/04/07 01:21:22;;;;;;;3.78;2.00;;;7.70;99.90;;;;;;21244024;27;20027;-38
2024/04/07 01:31:25;;;;;;;5.63;2.50;;;7.80;99.90;;;;;;21243474;27;20027;-38
2024/04/07 01:41:27;;;;;;;6.00;3.22;;;7.70;99.90;;;;;;21242086;27;20039;-39
2024/04/07 01:51:29;;;;;;;7.30;4.10;;;8.20;99.90;;;;;;21241085;27;20031;-39
2024/04/07 02:01:34;;;;;;;7.53;3.00;;;8.30;99.90;;;;;;21222062;27;20096;-39
2024/04/07 02:11:36;;;;;;;6.63;3.17;;;8.20;99.90;;;;;;21221308;27;20039;-38
2024/04/07 02:21:40;;;;;;;6.15;3.50;;;8.30;99.90;;;;;;21218924;27;20068;-39
2024/04/07 02:31:42;;;;;;;6.03;2.58;;;8.40;99.90;;;;;;21237454;27;20047;-39
2024/04/07 02:41:45;;;;;;;4.57;2.50;;;8.40;99.90;;;;;;21218915;27;20035;-38
2024/04/07 02:51:47;;;;;;;7.38;3.30;;;8.30;99.90;;;;;;21231169;27;20053;-38
2024/04/07 03:01:49;;;;;;;8.82;4.47;;;8.50;99.90;;;;;;21236603;27;20044;-41
2024/04/07 03:11:51;;;;;;;6.82;4.50;;;8.90;99.90;;;;;;21217352;28;20042;-40
2024/04/07 03:21:52;;;;;;;7.40;4.25;;;9.70;99.90;;;;;;21233464;27;20027;-41
2024/04/07 03:31:54;;;;;;;7.13;4.68;;;9.90;99.90;;;;;;21250087;27;20030;-38
2024/04/07 03:41:56;;;;;;;6.05;4.22;;;9.30;99.90;;;;;;21233399;27;20034;-39
2024/04/07 03:51:58;;;;;;;6.88;4.45;;;9.10;99.90;;;;;;21230666;27;20096;-40
2024/04/07 04:02:03;;;;;;;9.32;3.63;;;9.10;99.90;;;;;;21250400;27;20394;-39
2024/04/07 04:12:05;;;;;;;6.60;3.33;;;9.40;99.90;;;;;;21230743;27;20108;-39
2024/04/07 04:22:07;;;;;;;8.80;4.78;;;9.20;99.90;;;;;;21248870;27;20492;-38
2024/04/07 04:32:12;;;;;;;4.72;2.40;;;8.70;99.90;;;;;;21249618;27;20595;-39
2024/04/07 04:42:14;;;;;;;8.65;3.22;;;8.70;99.90;;;;;;21228839;27;20031;-39
2024/04/07 04:52:16;;;;;;;7.28;3.50;;;8.80;99.90;;;;;;21245965;27;20035;-39
2024/04/07 05:02:19;;;;;;;7.13;2.58;;;8.60;99.90;;;;;;21210234;27;20557;-39
2024/04/07 05:12:21;;;;;;;4.90;2.45;;;8.70;99.90;;;;;;21226230;27;20064;-39
2024/04/07 05:22:23;;;;;;;3.13;1.98;;;8.90;99.90;;;;;;21225582;27;20042;-40
2024/04/07 05:32:25;;;;;;;4.80;1.95;;;8.90;99.90;;;;;;21243092;27;20031;-39
2024/04/07 05:42:26;;;;;;;6.82;2.33;;;9.00;99.90;;;;;;21220019;27;20356;-39
2024/04/07 05:52:28;;;;;;;4.15;2.25;;;9.30;99.90;;;;;;21237754;27;20091;-39
2024/04/07 06:02:30;;;;;;;7.70;2.15;;;9.60;99.90;;;;;;21238183;27;20043;-40
2024/04/07 06:12:32;;;;;;;5.72;2.30;;;9.90;99.90;;;;;;21237034;27;20366;-40
2024/04/07 06:22:33;;;;;;;2.70;1.80;;;10.30;99.90;;;;;;21202056;27;20039;-40
2024/04/07 06:32:35;;;;;;;4.53;2.20;;;11.00;99.90;;;;;;21208147;27;20054;-42
2024/04/07 06:42:37;;;;;;;4.75;2.35;;;12.00;99.90;;;;;;21194214;27;20034;-40
2024/04/07 06:52:39;;;;;;;4.93;1.50;;;13.10;99.90;;;;;;21228615;27;20038;-41
2024/04/07 07:02:41;;;;;;;3.63;1.48;;;14.30;99.90;;;;;;21229642;27;20619;-43
2024/04/07 07:12:45;;;;;;;4.07;1.50;;;15.30;99.90;;;;;;21232925;28;20050;-45
2024/04/07 07:22:46;;;;;;;4.40;2.13;;;16.20;99.90;;;;;;21231538;28;20031;-43
2024/04/07 07:32:50;;;;;;;2.75;1.63;;;17.10;99.90;;;;;;21233586;28;20031;-41
2024/04/07 07:42:52;;;;;;;2.42;1.83;;;17.30;99.90;;;;;;21224071;28;20046;-43
2024/04/07 07:52:55;;;;;;;2.55;1.70;;;17.10;99.90;;;;;;21231019;28;20027;-45
2024/04/07 08:02:59;;;;;;;5.32;2.00;;;16.70;99.90;;;;;;20969493;28;20125;-44
2024/04/07 08:13:00;;;;;;;3.55;2.03;;;16.60;99.90;;;;;;20981798;28;20036;-43
2024/04/07 08:23:03;;;;;;;6.00;2.13;;;17.00;99.90;;;;;;20966395;28;20072;-47
2024/04/07 08:33:08;;;;;;;6.68;2.25;;;18.00;99.90;;;;;;21019176;27;20047;-47
2024/04/07 08:43:12;;;;;;;4.00;2.10;;;18.70;99.90;;;;;;21204832;27;20856;-46
2024/04/07 08:53:18;;;;;;;3.25;1.70;;;19.40;99.90;;;;;;21245724;27;20042;-43
2024/04/07 09:03:20;;;;;;;4.43;1.90;;;20.00;99.90;;;;;;21244399;27;20088;-41
2024/04/07 09:13:22;;;;;;;3.33;1.70;;;20.60;99.90;;;;;;21238806;27;20084;-42
2024/04/07 09:23:24;;;;;;;3.38;1.85;;;21.00;99.90;;;;;;21228063;27;20046;-43
2024/04/07 09:33:26;;;;;;;2.70;1.85;;;21.60;99.90;;;;;;21238172;27;20034;-44
2024/04/07 09:43:32;;;;;;;3.15;1.73;;;22.00;99.30;;;;;;21235410;27;20031;-43
2024/04/07 09:53:57;;;;;;;3.03;1.90;;;22.10;99.90;;;;;;21236635;27;20031;-44
2024/04/07 10:04:00;;;;;;;5.05;1.98;;;21.80;99.90;;;;;;21235977;27;20043;-45
2024/04/07 10:14:02;;;;;;;2.80;1.75;;;21.70;99.50;;;;;;21230846;27;20038;-44
2024/04/07 10:24:06;;;;;;;7.60;2.72;;;21.90;99.90;;;;;;21233279;27;20027;-44
2024/04/07 10:34:10;;;;;;;3.88;2.70;;;22.20;99.90;;;;;;21230206;27;20039;-40
2024/04/07 10:44:12;;;;;;;5.45;3.05;;;22.10;98.90;;;;;;21234646;27;20061;-45
2024/04/07 10:54:15;;;;;;;3.90;2.83;;;22.40;99.90;;;;;;21233297;27;20026;-46
2024/04/07 11:04:17;;;;;;;4.43;2.45;;;22.40;99.90;;;;;;21209907;27;20051;-44
2024/04/07 11:14:22;;;;;;;4.53;2.83;;;22.20;99.00;;;;;;21229141;28;20108;-44
2024/04/07 11:24:24;;;;;;;4.53;3.10;;;22.70;99.90;;;;;;21233289;28;20031;-43
2024/04/07 11:34:31;;;;;;;6.55;3.38;;;23.10;99.90;;;;;;21233747;27;20027;-41
2024/04/07 11:44:33;;;;;;;5.10;3.35;;;23.10;99.90;;;;;;21244006;27;20027;-42
2024/04/07 11:54:35;;;;;;;9.25;4.78;;;23.20;99.00;;;;;;21233407;27;20043;-42
2024/04/07 12:04:43;;;;;;;6.05;4.90;;;23.30;98.80;;;;;;21245601;27;20088;-43
2024/04/07 12:14:45;;;;;;;8.05;5.20;;;23.50;99.90;;;;;;21239978;27;20034;-44
2024/04/07 12:24:50;;;;;;;8.77;4.65;;;23.30;99.90;;;;;;21242259;27;20034;-44
2024/04/07 12:34:51;;;;;;;6.40;4.20;;;23.50;99.90;;;;;;21207451;27;20043;-43
2024/04/07 12:44:53;;;;;;;5.70;4.15;;;23.70;99.90;;;;;;21243832;27;20047;-44
2024/04/07 12:54:55;;;;;;;8.93;4.30;;;23.70;99.70;;;;;;21242020;27;20076;-43
2024/04/07 13:04:57;;;;;;;5.90;4.15;;;23.30;99.90;;;;;;21240304;27;20047;-45
2024/04/07 13:14:59;;;;;;;4.40;3.47;;;23.80;99.90;;;;;;21240219;27;20031;-43
2024/04/07 13:25:00;;;;;;;4.82;3.75;;;24.10;99.90;;;;;;21223268;27;20084;-44
2024/04/07 13:35:02;;;;;;;5.95;3.00;;;24.40;99.90;;;;;;21235348;27;20537;-47
2024/04/07 13:45:04;;;;;;;7.15;3.28;;;24.40;99.90;;;;;;21228521;27;20046;-45
2024/04/07 13:55:06;;;;;;;6.90;4.00;;;24.10;99.20;;;;;;21218379;27;20084;-48
2024/04/07 14:05:08;;;;;;;5.97;3.22;;;24.00;98.20;;;;;;21149024;28;20489;-45
2024/04/07 14:15:10;;;;;;;9.27;3.70;;;24.20;97.30;;;;;;21150641;28;20036;-44
2024/04/07 14:25:12;;;;;;;5.95;3.85;;;23.90;99.90;;;;;;21151670;28;20536;-46
2024/04/07 14:35:14;;;;;;;5.53;3.83;;;23.60;99.50;;;;;;21149844;28;20040;-42
2024/04/07 14:45:19;;;;;;;6.28;5.25;;;23.60;99.50;;;;;;21149100;28;20028;-43
2024/04/07 14:55:21;;;;;;;11.13;6.85;;;23.50;99.90;;;;;;21147717;28;20060;-45
2024/04/07 15:05:23;;;;;;;6.65;5.75;;;22.90;99.40;;;;;;21228354;27;20814;-44
2024/04/07 15:15:25;;;;;;;9.13;6.03;;;21.90;99.90;;;;;;21233975;27;20046;-44
2024/04/07 15:25:27;;;;;;;10.15;7.28;;;21.00;99.90;;;;;;21211553;27;20043;-43
2024/04/07 15:35:28;;;;;;;12.05;7.07;;;20.50;99.90;;;;;;21230864;28;20580;-46
2024/04/07 15:45:33;;;;;;;9.75;6.82;;;20.20;99.90;;;;;;21230701;28;20139;-44
2024/04/07 15:55:35;;;;;;;9.23;6.40;;;20.10;99.90;;;;;;21232256;28;20038;-42
2024/04/07 16:05:39;;;;;;;8.40;7.47;;;19.80;99.90;;;;;;21231127;28;20089;-44
2024/04/07 16:15:42;;;;;;;9.82;6.93;;;19.50;99.90;;;;;;21227591;28;20038;-42
2024/04/07 16:25:45;;;;;;;9.05;7.43;;;19.10;99.90;;;;;;21237853;27;20088;-42
2024/04/07 16:35:54;;;;;;;8.93;7.28;;;18.70;99.90;;;;;;21244468;27;20051;-42
2024/04/07 16:45:56;;;;;;;11.07;8.15;;;18.10;99.90;;;;;;21246994;27;20027;-41
2024/04/07 16:55:58;;;;;;;10.10;8.23;;;17.60;99.90;;;;;;21245936;27;20031;-42
2024/04/07 17:06:00;;;;;;;18.20;11.23;;;16.80;99.90;;;;;;21245669;27;20083;-41
2024/04/07 17:16:03;;;;;;;12.05;8.05;;;16.10;99.90;;;;;;21245167;27;20050;-40
2024/04/07 17:26:05;;;;;;;5.68;1.92;;;15.20;99.90;;;;;;21244053;27;20438;-40
2024/04/07 17:36:07;;;;;;;2.38;1.20;;;14.50;99.90;;;;;;21243369;27;20042;-40
2024/04/07 17:46:09;;;;;;;1.95;1.10;;;14.00;99.90;;;;;;21240982;27;20031;-39
2024/04/07 17:56:12;;;;;;;2.88;1.10;;;13.60;99.90;;;;;;21238479;27;20124;-39
2024/04/07 18:06:14;;;;;;;2.13;1.00;;;13.50;99.90;;;;;;21220088;27;20039;-41
2024/04/07 18:16:19;;;;;;;2.75;1.67;;;13.10;99.90;;;;;;21240289;27;20035;-40
2024/04/07 18:26:24;;;;;;;2.30;1.10;;;12.80;99.90;;;;;;21239073;27;20548;-40
2024/04/07 18:36:28;;;;;;;5.32;1.23;;;12.40;99.90;;;;;;21237513;27;20414;-39
2024/04/07 18:46:30;;;;;;;4.22;1.30;;;12.40;99.90;;;;;;21237296;27;20430;-40
2024/04/07 18:56:35;;;;;;;5.22;1.40;;;12.40;99.90;;;;;;21236840;27;20127;-39
2024/04/07 19:06:46;;;;;;;3.83;1.38;;;12.20;99.90;;;;;;21171175;27;20043;-39
2024/04/07 19:16:48;;;;;;;1.98;1.10;;;12.20;99.90;;;;;;21192409;28;20031;-39
2024/04/07 19:26:51;;;;;;;1.98;1.20;;;12.20;99.90;;;;;;21213526;28;20564;-40
2024/04/07 19:36:54;;;;;;;2.08;1.00;;;12.10;99.90;;;;;;21217156;28;20047;-41
2024/04/07 19:47:01;;;;;;;2.47;1.23;;;12.20;99.90;;;;;;21235441;28;20030;-40
2024/04/07 19:57:04;;;;;;;1.52;0.80;;;12.00;99.90;;;;;;21235794;27;20488;-39
2024/04/07 20:07:06;;;;;;;1.50;1.00;;;11.90;99.90;;;;;;21249948;27;20178;-39
2024/04/07 20:17:08;;;;;;;2.25;1.30;;;11.80;99.90;;;;;;21249919;27;20031;-39
2024/04/07 20:27:10;;;;;;;4.75;1.30;;;11.60;99.90;;;;;;21248780;27;20333;-40
2024/04/07 20:37:12;;;;;;;1.73;1.00;;;11.60;99.90;;;;;;21230386;27;20031;-40
2024/04/07 20:47:13;;;;;;;1.38;1.02;;;11.80;99.90;;;;;;21229164;27;20166;-39
2024/04/07 20:57:15;;;;;;;2.97;1.00;;;11.70;99.90;;;;;;21246148;27;20579;-39
2024/04/07 21:07:17;;;;;;;2.78;1.00;;;11.60;99.90;;;;;;21244736;27;20091;-39
2024/04/07 21:17:19;;;;;;;1.35;0.70;;;11.50;99.90;;;;;;21245250;27;20038;-41
2024/04/07 21:27:22;;;;;;;2.30;0.80;;;11.40;98.70;;;;;;21243907;27;20027;-39
2024/04/07 21:37:23;;;;;;;2.13;0.93;;;11.50;99.20;;;;;;21243125;27;20119;-39
2024/04/07 21:47:25;;;;;;;1.98;0.82;;;11.60;99.10;;;;;;21242558;27;20034;-38
2024/04/07 21:57:30;;;;;;;1.88;0.85;;;11.20;99.40;;;;;;21241213;27;20043;-39
2024/04/07 22:07:32;;;;;;;0.70;0.60;;;11.00;99.40;;;;;;21240603;27;20135;-39
2024/04/07 22:17:34;;;;;;;1.17;0.80;;;11.20;96.20;;;;;;21239977;27;20039;-39
2024/04/07 22:27:36;;;;;;;5.50;0.50;;;11.20;98.00;;;;;;21220138;27;20091;-39
2024/04/07 22:37:38;;;;;;;1.35;0.50;;;10.90;97.50;;;;;;21238739;27;20449;-39
2024/04/07 22:47:40;;;;;;;0.60;0.35;;;10.80;96.20;;;;;;21238366;27;20031;-39
2024/04/07 22:57:42;;;;;;;2.00;0.40;;;10.80;95.10;;;;;;21235689;27;20050;-40
2024/04/07 23:07:45;;;;;;;0.60;0.30;;;10.50;94.20;;;;;;21236636;27;20107;-39
2024/04/07 23:17:46;;;;;;;0.43;0.30;;;10.50;92.80;;;;;;21236826;27;20400;-39
2024/04/07 23:27:51;;;;;;;0.68;0.40;;;10.30;92.80;;;;;;21200616;28;20039;-39
2024/04/07 23:37:53;;;;;;;1.90;0.60;;;10.30;93.30;;;;;;21249602;27;20058;-40
2024/04/07 23:47:54;;;;;;;0.68;0.35;;;10.10;95.00;;;;;;21253001;27;20091;-39
2024/04/07 23:58:00;;;;;;;1.13;0.50;;;10.00;94.00;;;;;;21251066;27;20076;-39
